EDT,Max TemperatureF,Mean TemperatureF,Min TemperatureF,Max Dew PointF,MeanDew PointF,Min DewpointF,Max Humidity, Mean Humidity, Min Humidity, Max Sea Level PressureIn, Mean Sea Level PressureIn, Min Sea Level PressureIn, Max VisibilityMiles, Mean VisibilityMiles, Min VisibilityMiles, Max Wind SpeedMPH, Mean Wind SpeedMPH, Max Gust SpeedMPH,PrecipitationIn, CloudCover, Events, WindDirDegrees
2013-3-1,31,30,28,29,26,24,91,85,75,29.72,29.66,29.57,10,7,2,10,7,,0.00,8,Snow,332
2013-3-2,29,26,22,25,22,18,88,83,71,29.73,29.71,29.69,10,6,1,12,7,20,0.00,8,Snow,319
2013-3-3,26,24,21,20,19,17,89,81,76,29.70,29.66,29.63,10,7,1,9,4,,0.00,8,Snow,309
2013-3-4,23,22,20,18,16,13,83,77,68,29.83,29.70,29.63,10,8,1,13,4,,0.00,8,Snow,304
2013-3-5,32,27,22,28,23,17,87,79,71,30.09,30.01,29.84,10,9,5,9,3,,0.00,8,Snow,344
2013-3-6,36,32,28,28,23,18,93,67,49,30.21,30.17,30.09,10,10,4,18,8,25,0.00,8,,66
2013-3-7,32,30,27,20,19,17,69,63,59,30.21,30.17,30.13,10,10,10,15,9,16,0.00,8,,22
2013-3-8,38,31,24,21,20,18,78,64,43,30.30,30.22,30.13,10,10,10,15,10,18,0.00,3,,344
2013-3-9,43,29,15,23,18,12,91,66,33,30.34,30.31,30.27,10,8,0,9,3,,0.00,0,Fog,359
2013-3-10,49,35,21,25,20,15,83,52,26,30.32,30.22,30.10,10,10,10,16,7,21,0.00,1,,173
2013-3-11,48,42,36,28,25,23,67,52,39,30.15,30.04,29.95,10,10,10,20,11,25,0.00,4,,167
2013-3-12,46,40,34,43,38,28,92,84,56,29.97,29.83,29.69,10,8,4,15,10,22,0.00,8,Rain,176
2013-3-13,37,32,28,32,27,20,95,77,49,29.80,29.76,29.71,10,9,0,9,3,,0.00,7,Rain-Snow,294
2013-3-14,30,22,13,25,13,2,88,69,53,29.83,29.74,29.67,10,9,1,17,7,23,0.00,7,Snow,264
2013-3-15,29,19,9,23,11,1,90,69,37,29.84,29.70,29.55,10,8,0,8,4,,0.00,5,Snow,242
2013-3-16,23,16,9,19,10,5,87,68,49,29.87,29.79,29.66,10,8,0,12,6,17,0.00,6,Snow,318
2013-3-17,21,12,5,8,0,-8,83,57,32,30.29,30.05,29.87,10,8,1,16,5,26,0.00,4,Snow,276
2013-3-18,29,14,0,11,0,-6,80,51,21,30.41,30.29,30.12,10,10,10,7,2,,0.00,0,,356
2013-3-19,28,25,21,25,21,5,90,83,39,30.11,29.86,29.71,10,2,0,10,4,16,0.00,8,Snow,127
2013-3-20,30,25,20,24,19,16,91,78,57,29.70,29.63,29.59,10,4,1,13,4,18,0.00,8,Snow,249
2013-3-21,33,23,14,19,11,4,80,58,31,29.68,29.64,29.60,10,10,4,13,7,,0.00,4,Snow,211
2013-3-22,29,19,9,22,13,6,88,74,59,29.69,29.64,29.61,10,8,1,12,3,18,0.00,6,Snow,280
2013-3-23,33,28,23,22,20,17,80,70,58,29.74,29.64,29.57,10,7,2,22,10,32,0.00,8,Snow,276
2013-3-24,34,27,21,23,21,17,84,69,59,29.83,29.79,29.73,10,10,3,13,8,18,0.00,7,Snow,289
2013-3-25,40,27,14,24,20,11,89,70,49,29.80,29.69,29.58,10,9,1,15,4,22,0.00,6,,359
2013-3-26,39,32,24,23,21,19,79,63,46,29.77,29.70,29.62,10,10,10,13,8,18,0.00,4,,342
2013-3-27,39,31,23,31,25,18,94,73,54,29.91,29.82,29.74,10,8,2,14,2,18,0.00,7,Rain-Snow,324
2013-3-28,41,36,32,32,30,28,96,80,58,30.02,29.97,29.90,10,7,0,10,2,16,0.00,8,Fog-Snow,323
2013-3-29,42,38,32,33,30,26,90,73,51,30.05,30.02,29.99,10,10,5,12,3,17,0.00,8,Rain,273
2013-3-30,43,34,26,30,19,11,88,54,28,30.08,30.05,30.02,10,10,10,13,3,18,0.00,1,,304
2013-3-31,51,37,24,33,19,16,78,49,27,30.08,29.92,29.73,10,10,10,18,7,26,0.00,2,Rain,184